createdAt,value
2017-09-12T00:00:09.481Z,0
2017-09-12T00:01:31.940Z,0
2017-09-12T00:02:54.373Z,0
2017-09-12T00:04:16.512Z,0
2017-09-12T00:05:38.003Z,0
2017-09-12T00:07:00.144Z,0
2017-09-12T00:08:22.629Z,0
2017-09-12T00:09:44.771Z,0
2017-09-12T00:11:06.593Z,0
2017-09-12T00:12:28.778Z,0
2017-09-12T00:13:50.992Z,0
2017-09-12T00:15:12.862Z,0
2017-09-12T00:16:34.784Z,0
2017-09-12T00:17:57.256Z,0
2017-09-12T00:19:19.002Z,0
2017-09-12T00:20:41.471Z,0
2017-09-12T00:22:03.622Z,0
2017-09-12T00:23:25.794Z,0
2017-09-12T00:24:47.603Z,0
2017-09-12T00:26:09.417Z,0
2017-09-12T00:27:30.930Z,0
2017-09-12T00:28:53.067Z,0
2017-09-12T00:30:14.937Z,0
2017-09-12T00:31:36.443Z,0
2017-09-12T00:32:58.409Z,0
2017-09-12T00:34:20.674Z,0
2017-09-12T00:35:42.725Z,0
2017-09-12T00:37:05.195Z,0
2017-09-12T00:38:27.053Z,0
2017-09-12T00:39:49.313Z,0
2017-09-12T00:41:26.113Z,0
2017-09-12T00:42:48.244Z,0
2017-09-12T00:44:10.764Z,0
2017-09-12T00:45:32.591Z,0
2017-09-12T00:46:54.767Z,0
2017-09-12T00:48:16.990Z,0
2017-09-12T00:49:38.472Z,0
2017-09-12T00:51:00.917Z,0
2017-09-12T00:52:23.033Z,0
2017-09-12T00:53:44.302Z,0
2017-09-12T00:55:06.195Z,0
2017-09-12T00:56:28.422Z,0
2017-09-12T00:57:51.290Z,0
2017-09-12T00:59:12.450Z,0
2017-09-12T01:00:33.627Z,0
2017-09-12T01:01:55.124Z,0
2017-09-12T01:03:17.837Z,0
2017-09-12T01:04:39.324Z,0
2017-09-12T01:06:01.134Z,0
2017-09-12T01:07:22.964Z,0
2017-09-12T01:08:45.412Z,0
2017-09-12T01:10:07.590Z,0
2017-09-12T01:11:29.087Z,0
2017-09-12T01:12:51.663Z,0
2017-09-12T01:14:13.831Z,0
2017-09-12T01:15:36.393Z,0
2017-09-12T01:16:58.644Z,0
2017-09-12T01:18:20.461Z,0
2017-09-12T01:19:42.577Z,0
2017-09-12T01:21:04.724Z,0
2017-09-12T01:22:26.914Z,0
2017-09-12T01:23:48.723Z,0
2017-09-12T01:25:10.512Z,0
2017-09-12T01:26:32.383Z,0
2017-09-12T01:27:54.188Z,0
2017-09-12T01:29:16.345Z,0
2017-09-12T01:30:38.773Z,0
2017-09-12T01:32:00.272Z,0
2017-09-12T01:33:22.405Z,0
2017-09-12T01:34:44.542Z,0
2017-09-12T01:36:07.025Z,0
2017-09-12T01:37:28.827Z,0
2017-09-12T01:38:51.283Z,0
2017-09-12T01:40:13.097Z,0
2017-09-12T01:41:35.597Z,0
2017-09-12T01:42:57.734Z,0
2017-09-12T01:44:19.555Z,0
2017-09-12T01:45:41.365Z,0
2017-09-12T01:47:03.207Z,0
2017-09-12T01:48:25.386Z,0
2017-09-12T01:49:46.571Z,0
2017-09-12T01:51:08.384Z,0
2017-09-12T01:52:30.144Z,0
2017-09-12T01:53:52.276Z,0
2017-09-12T01:55:14.185Z,0
2017-09-12T01:56:35.965Z,0
2017-09-12T01:57:58.188Z,0
2017-09-12T01:59:20.345Z,0
2017-09-12T02:00:41.854Z,0
2017-09-12T02:02:03.995Z,0
2017-09-12T02:03:26.080Z,0
2017-09-12T02:04:47.965Z,0
2017-09-12T02:06:09.514Z,0
2017-09-12T02:07:31.665Z,0
2017-09-12T02:08:54.074Z,0
2017-09-12T02:10:15.885Z,0
2017-09-12T02:11:37.746Z,0
2017-09-12T02:12:59.970Z,0
2017-09-12T02:14:22.452Z,0
2017-09-12T02:15:44.254Z,0
2017-09-12T02:17:05.736Z,0
2017-09-12T02:18:26.925Z,0
2017-09-12T02:19:49.355Z,0
2017-09-12T02:21:11.250Z,0
2017-09-12T02:22:32.820Z,0
2017-09-12T02:23:54.300Z,0
2017-09-12T02:25:16.093Z,0
2017-09-12T02:26:37.258Z,0
2017-09-12T02:27:58.757Z,0
2017-09-12T02:29:20.248Z,0
2017-09-12T02:30:42.401Z,0
2017-09-12T02:32:03.882Z,0
2017-09-12T02:33:25.674Z,0
2017-09-12T02:34:47.176Z,0
2017-09-12T02:36:09.655Z,0
2017-09-12T02:37:32.094Z,0
2017-09-12T02:38:53.941Z,0
2017-09-12T02:40:16.084Z,0
2017-09-12T02:41:38.505Z,0
2017-09-12T02:43:00.617Z,0
2017-09-12T02:44:23.075Z,0
2017-09-12T02:45:44.945Z,0
2017-09-12T02:47:07.363Z,0
2017-09-12T02:48:28.843Z,0
2017-09-12T02:49:50.331Z,0
2017-09-12T02:51:12.836Z,0
2017-09-12T02:52:35.336Z,0
2017-09-12T02:53:57.910Z,0
2017-09-12T02:55:19.723Z,0
2017-09-12T02:56:41.534Z,0
2017-09-12T02:58:04.000Z,0
2017-09-12T02:59:25.491Z,0
2017-09-12T03:00:47.623Z,0
2017-09-12T03:02:08.884Z,0
2017-09-12T03:03:31.124Z,0
2017-09-12T03:04:53.307Z,0
2017-09-12T03:06:15.860Z,0
2017-09-12T03:07:37.976Z,0
2017-09-12T03:08:59.755Z,0
2017-09-12T03:10:21.564Z,0
2017-09-12T03:11:43.403Z,0
2017-09-12T03:13:05.213Z,0
2017-09-12T03:14:27.651Z,0
2017-09-12T03:15:49.511Z,0
2017-09-12T03:17:11.332Z,0
2017-09-12T03:18:33.140Z,0
2017-09-12T03:19:54.882Z,0
2017-09-12T03:21:17.319Z,0
2017-09-12T03:22:39.502Z,0
2017-09-12T03:24:01.150Z,0
2017-09-12T03:25:23.534Z,0
2017-09-12T03:26:45.339Z,0
2017-09-12T03:28:07.209Z,0
2017-09-12T03:29:28.692Z,0
2017-09-12T03:30:51.262Z,0
2017-09-12T03:32:13.711Z,0
2017-09-12T03:33:35.310Z,0
2017-09-12T03:34:56.830Z,0
2017-09-12T03:36:18.233Z,0
2017-09-12T03:37:40.732Z,0
2017-09-12T03:39:02.538Z,0
2017-09-12T03:40:25.177Z,0
2017-09-12T03:41:47.301Z,0
2017-09-12T03:43:08.800Z,0
2017-09-12T03:44:30.932Z,0
2017-09-12T03:45:53.055Z,0
2017-09-12T03:47:15.281Z,0
2017-09-12T03:48:37.091Z,0
2017-09-12T03:49:58.262Z,0
2017-09-12T03:51:19.870Z,0
2017-09-12T03:52:42.591Z,0
2017-09-12T03:54:03.792Z,0
2017-09-12T03:55:25.611Z,0
2017-09-12T03:56:48.176Z,0
2017-09-12T03:58:10.567Z,0
2017-09-12T03:59:32.069Z,0
2017-09-12T04:00:54.213Z,0
2017-09-12T04:02:16.659Z,0
2017-09-12T04:03:38.912Z,0
2017-09-12T04:05:01.082Z,0
2017-09-12T04:06:22.955Z,0
2017-09-12T04:07:44.601Z,0
2017-09-12T04:09:07.137Z,0
2017-09-12T04:10:29.581Z,0
2017-09-12T04:11:50.753Z,0
2017-09-12T04:13:12.900Z,0
2017-09-12T04:14:35.676Z,0
2017-09-12T04:15:56.841Z,0
2017-09-12T04:17:18.725Z,0
2017-09-12T04:18:40.549Z,0
2017-09-12T04:20:03.009Z,0
2017-09-12T04:21:24.873Z,0
2017-09-12T04:22:46.381Z,0
2017-09-12T04:24:08.211Z,0
2017-09-12T04:25:30.272Z,0
2017-09-12T04:26:52.408Z,4
2017-09-12T04:28:13.952Z,4
2017-09-12T04:29:35.782Z,4
2017-09-12T04:30:57.898Z,4
2017-09-12T04:32:20.297Z,8
2017-09-12T04:33:41.819Z,8
2017-09-12T04:35:03.642Z,8
2017-09-12T04:36:26.342Z,8
2017-09-12T04:37:48.470Z,16
2017-09-12T04:39:10.931Z,20
2017-09-12T04:40:32.757Z,24
2017-09-12T04:41:55.242Z,28
2017-09-12T04:43:17.062Z,32
2017-09-12T04:44:38.968Z,36
2017-09-12T04:46:01.109Z,52
2017-09-12T04:47:22.921Z,76
2017-09-12T04:48:44.759Z,80
2017-09-12T04:50:06.889Z,76
2017-09-12T04:51:28.719Z,84
2017-09-12T04:52:51.581Z,92
2017-09-12T04:54:13.081Z,112
2017-09-12T04:55:34.897Z,156
2017-09-12T04:56:56.781Z,164
2017-09-12T04:58:19.611Z,244
2017-09-12T04:59:41.548Z,280
2017-09-12T05:01:04.122Z,284
2017-09-12T05:02:26.262Z,308
2017-09-12T05:03:48.325Z,412
2017-09-12T05:05:10.768Z,488
2017-09-12T05:06:32.908Z,552
2017-09-12T05:07:54.384Z,608
2017-09-12T05:09:16.769Z,660
2017-09-12T05:10:38.260Z,688
2017-09-12T05:12:00.711Z,704
2017-09-12T05:13:22.544Z,640
2017-09-12T05:14:44.643Z,720
2017-09-12T05:16:07.103Z,868
2017-09-12T05:17:29.231Z,732
2017-09-12T05:18:51.381Z,864
2017-09-12T05:20:13.137Z,980
2017-09-12T05:21:35.273Z,1172
2017-09-12T05:22:57.422Z,1236
2017-09-12T05:24:19.242Z,1456
2017-09-12T05:25:41.313Z,1616
2017-09-12T05:27:03.144Z,1636
2017-09-12T05:28:24.949Z,1548
2017-09-12T05:29:46.772Z,1536
2017-09-12T05:31:09.302Z,1212
2017-09-12T05:32:31.128Z,1076
2017-09-12T05:33:53.323Z,952
2017-09-12T05:35:15.472Z,1028
2017-09-12T05:36:37.555Z,1208
2017-09-12T05:37:59.762Z,964
2017-09-12T05:39:22.225Z,1356
2017-09-12T05:40:44.037Z,1168
2017-09-12T05:42:06.531Z,1144
2017-09-12T05:43:28.653Z,1148
2017-09-12T05:44:50.483Z,1296
2017-09-12T05:46:12.325Z,1156
2017-09-12T05:47:35.053Z,1396
2017-09-12T05:48:56.543Z,1776
2017-09-12T05:50:18.682Z,1548
2017-09-12T05:51:40.503Z,1764
2017-09-12T05:53:02.903Z,1912
2017-09-12T05:54:24.069Z,2672
2017-09-12T05:55:45.893Z,3172
2017-09-12T05:57:07.722Z,3132
2017-09-12T05:58:30.158Z,2976
2017-09-12T05:59:52.309Z,3084
2017-09-12T06:01:14.454Z,3536
2017-09-12T06:02:36.904Z,3112
2017-09-12T06:03:59.348Z,3336
2017-09-12T06:05:21.797Z,3772
2017-09-12T06:06:43.647Z,4180
2017-09-12T06:08:05.771Z,3776
2017-09-12T06:09:28.462Z,3252
2017-09-12T06:10:50.292Z,3700
2017-09-12T06:12:12.494Z,4184
2017-09-12T06:13:34.645Z,3800
2017-09-12T06:14:56.854Z,3464
2017-09-12T06:16:19.305Z,3112
2017-09-12T06:17:41.566Z,3120
2017-09-12T06:19:03.361Z,3096
2017-09-12T06:20:25.478Z,3368
2017-09-12T06:21:47.295Z,3344
2017-09-12T06:23:09.386Z,3428
2017-09-12T06:24:31.472Z,3924
2017-09-12T06:25:52.849Z,3308
2017-09-12T06:27:13.995Z,3472
2017-09-12T06:28:36.563Z,3204
2017-09-12T06:29:58.321Z,3496
2017-09-12T06:31:20.683Z,4716
2017-09-12T06:32:42.794Z,5772
2017-09-12T06:34:04.564Z,6620
2017-09-12T06:35:27.073Z,7248
2017-09-12T06:36:49.152Z,7268
2017-09-12T06:38:10.982Z,7068
2017-09-12T06:39:32.543Z,6612
2017-09-12T06:40:54.345Z,6656
2017-09-12T06:42:17.155Z,7488
2017-09-12T06:43:39.293Z,8228
2017-09-12T06:45:01.414Z,9408
2017-09-12T06:46:23.208Z,10720
2017-09-12T06:47:45.613Z,11556
2017-09-12T06:49:07.903Z,9972
2017-09-12T06:50:30.036Z,8748
2017-09-12T06:51:52.524Z,8696
2017-09-12T06:53:15.413Z,8732
2017-09-12T06:54:36.923Z,9064
2017-09-12T06:55:59.393Z,8844
2017-09-12T06:57:21.203Z,8576
2017-09-12T06:58:43.037Z,8024
2017-09-12T07:00:04.871Z,6828
2017-09-12T07:01:27.345Z,5452
2017-09-12T07:02:49.984Z,4688
2017-09-12T07:04:12.390Z,4276
2017-09-12T07:05:33.902Z,4108
2017-09-12T07:06:55.723Z,3560
2017-09-12T07:08:17.248Z,3700
2017-09-12T07:09:39.440Z,4808
2017-09-12T07:11:01.593Z,5072
2017-09-12T07:12:23.431Z,5220
2017-09-12T07:13:45.894Z,6232
2017-09-12T07:15:08.146Z,8452
2017-09-12T07:16:30.394Z,6504
2017-09-12T07:17:52.513Z,6704
2017-09-12T07:19:14.025Z,6752
2017-09-12T07:20:36.193Z,5460
2017-09-12T07:21:58.356Z,5592
2017-09-12T07:23:20.183Z,5372
2017-09-12T07:24:41.673Z,6800
2017-09-12T07:26:03.833Z,7820
2017-09-12T07:27:25.684Z,7884
2017-09-12T07:28:47.673Z,8432
2017-09-12T07:30:09.872Z,9576
2017-09-12T07:31:32.679Z,10068
2017-09-12T07:32:54.617Z,9748
2017-09-12T07:34:15.799Z,8532
2017-09-12T07:35:37.295Z,8360
2017-09-12T07:36:59.794Z,8932
2017-09-12T07:38:21.956Z,10040
2017-09-12T07:39:44.414Z,10300
2017-09-12T07:41:06.954Z,10816
2017-09-12T07:42:29.794Z,12080
2017-09-12T07:43:51.603Z,12620
2017-09-12T07:45:13.779Z,13624
2017-09-12T07:46:35.595Z,14392
2017-09-12T07:47:58.096Z,12776
2017-09-12T07:49:19.283Z,12056
2017-09-12T07:50:41.158Z,11228
2017-09-12T07:52:03.433Z,11680
2017-09-12T07:53:25.594Z,13200
2017-09-12T07:54:48.070Z,12432
2017-09-12T07:56:10.462Z,15684
2017-09-12T07:57:32.023Z,18560
2017-09-12T07:58:54.104Z,12140
2017-09-12T08:00:16.843Z,10692
2017-09-12T08:01:40.625Z,10328
2017-09-12T08:03:04.595Z,6964
2017-09-12T08:04:28.108Z,6320
2017-09-12T08:05:52.277Z,6948
2017-09-12T08:07:14.669Z,6620
2017-09-12T08:08:38.034Z,7716
2017-09-12T08:10:00.436Z,8088
2017-09-12T08:11:22.636Z,9432
2017-09-12T08:12:44.771Z,12008
2017-09-12T08:14:06.952Z,11692
2017-09-12T08:15:28.903Z,10884
2017-09-12T08:16:51.040Z,8828
2017-09-12T08:18:12.924Z,7564
2017-09-12T08:19:34.773Z,7280
2017-09-12T08:20:56.934Z,7776
2017-09-12T08:22:19.063Z,8488
2017-09-12T08:23:41.185Z,9612
2017-09-12T08:25:03.319Z,8520
2017-09-12T08:26:26.223Z,8696
2017-09-12T08:27:48.696Z,8388
2017-09-12T08:29:11.233Z,8728
2017-09-12T08:30:33.454Z,9272
2017-09-12T08:31:56.192Z,10732
2017-09-12T08:33:18.333Z,15584
2017-09-12T08:34:40.482Z,16704
2017-09-12T08:36:02.313Z,18592
2017-09-12T08:37:25.049Z,16096
2017-09-12T08:38:47.321Z,16928
2017-09-12T08:40:09.483Z,11736
2017-09-12T08:41:31.619Z,12616
2017-09-12T08:42:54.118Z,12196
2017-09-12T08:44:16.357Z,10368
2017-09-12T08:45:38.205Z,9000
2017-09-12T08:46:59.697Z,8452
2017-09-12T08:48:21.589Z,8912
2017-09-12T08:49:43.768Z,10404
2017-09-12T08:51:05.632Z,8036
2017-09-12T08:52:27.132Z,8600
2017-09-12T08:53:49.894Z,10096
2017-09-12T08:55:12.040Z,8816
2017-09-12T08:56:33.872Z,9580
2017-09-12T08:57:56.405Z,11704
2017-09-12T08:59:18.889Z,12464
2017-09-12T09:00:40.734Z,13460
2017-09-12T09:02:02.983Z,15152
2017-09-12T09:03:25.143Z,14168
2017-09-12T09:04:47.899Z,14000
2017-09-12T09:06:09.404Z,12476
2017-09-12T09:07:31.538Z,12064
2017-09-12T09:08:53.047Z,14560
2017-09-12T09:10:15.501Z,15036
2017-09-12T09:11:37.344Z,13388
2017-09-12T09:12:59.261Z,12544
2017-09-12T09:14:21.242Z,11292
2017-09-12T09:15:43.062Z,11388
2017-09-12T09:17:04.566Z,11224
2017-09-12T09:18:27.032Z,13488
2017-09-12T09:19:49.269Z,12816
2017-09-12T09:21:11.437Z,14028
2017-09-12T09:22:33.913Z,14352
2017-09-12T09:23:56.430Z,12976
2017-09-12T09:25:18.562Z,12392
2017-09-12T09:26:40.981Z,12752
2017-09-12T09:28:03.176Z,14040
2017-09-12T09:29:25.000Z,14928
2017-09-12T09:30:47.139Z,13476
2017-09-12T09:32:09.541Z,14684
2017-09-12T09:33:31.732Z,12056
2017-09-12T09:34:53.883Z,12876
2017-09-12T09:36:16.135Z,9124
2017-09-12T09:37:37.757Z,8076
2017-09-12T09:38:59.941Z,7208
2017-09-12T09:40:22.102Z,7784
2017-09-12T09:41:44.250Z,8460
2017-09-12T09:43:06.125Z,10076
2017-09-12T09:44:28.361Z,9692
2017-09-12T09:45:49.552Z,8728
2017-09-12T09:47:12.099Z,7816
2017-09-12T09:48:34.592Z,8004
2017-09-12T09:49:57.037Z,8404
2017-09-12T09:51:19.189Z,9924
2017-09-12T09:52:41.023Z,10848
2017-09-12T09:54:03.903Z,9168
2017-09-12T09:55:26.356Z,13448
2017-09-12T09:56:48.564Z,14740
2017-09-12T09:58:10.732Z,17600
2017-09-12T09:59:32.892Z,17120
2017-09-12T10:00:54.391Z,16512
2017-09-12T10:02:16.239Z,14028
2017-09-12T10:03:38.373Z,8864
2017-09-12T10:05:01.091Z,8344
2017-09-12T10:06:23.567Z,8180
2017-09-12T10:07:45.413Z,7284
2017-09-12T10:09:07.252Z,6748
2017-09-12T10:10:29.212Z,6164
2017-09-12T10:11:51.054Z,6512
2017-09-12T10:13:13.246Z,6576
2017-09-12T10:14:35.762Z,6828
2017-09-12T10:15:58.483Z,8796
2017-09-12T10:17:20.643Z,11676
2017-09-12T10:18:42.471Z,11996
2017-09-12T10:20:04.623Z,9996
2017-09-12T10:21:26.780Z,7848
2017-09-12T10:22:48.922Z,8240
2017-09-12T10:24:11.393Z,10084
2017-09-12T10:25:33.214Z,12648
2017-09-12T10:26:54.989Z,14600
2017-09-12T10:28:17.114Z,14236
2017-09-12T10:29:39.280Z,12572
2017-09-12T10:31:00.567Z,13864
2017-09-12T10:32:22.943Z,15572
2017-09-12T10:33:45.392Z,12200
2017-09-12T10:35:07.921Z,13424
2017-09-12T10:36:29.760Z,16960
2017-09-12T10:37:51.905Z,19616
2017-09-12T10:39:14.046Z,20000
2017-09-12T10:40:35.902Z,20512
2017-09-12T10:41:58.065Z,20768
2017-09-12T10:43:20.204Z,20192
2017-09-12T10:44:42.682Z,19712
2017-09-12T10:46:04.532Z,20384
2017-09-12T10:47:26.826Z,19968
2017-09-12T10:48:49.547Z,20608
2017-09-12T10:50:11.062Z,21536
2017-09-12T10:51:33.207Z,19200
2017-09-12T10:52:55.449Z,19200
2017-09-12T10:54:18.214Z,20000
2017-09-12T10:55:40.683Z,19296
2017-09-12T10:57:02.525Z,17664
2017-09-12T10:58:24.681Z,18432
2017-09-12T10:59:47.093Z,20384
2017-09-12T11:01:08.706Z,18464
2017-09-12T11:02:30.854Z,16384
2017-09-12T11:03:52.674Z,19168
2017-09-12T11:05:15.414Z,18496
2017-09-12T11:06:37.572Z,16448
2017-09-12T11:07:59.741Z,16512
2017-09-12T11:09:21.690Z,15776
2017-09-12T11:10:44.133Z,14680
2017-09-12T11:12:06.402Z,14236
2017-09-12T11:13:27.916Z,13640
2017-09-12T11:14:50.070Z,11216
2017-09-12T11:16:11.951Z,8888
2017-09-12T11:17:34.442Z,8140
2017-09-12T11:18:56.595Z,9232
2017-09-12T11:20:19.061Z,10224
2017-09-12T11:21:41.499Z,10048
2017-09-12T11:23:03.992Z,11900
2017-09-12T11:24:25.833Z,13220
2017-09-12T11:25:48.551Z,11728
2017-09-12T11:27:10.634Z,9972
2017-09-12T11:28:32.120Z,9092
2017-09-12T11:29:54.369Z,10624
2017-09-12T11:31:16.289Z,11724
2017-09-12T11:32:38.371Z,10216
2017-09-12T11:34:00.522Z,10992
2017-09-12T11:35:22.675Z,11620
2017-09-12T11:36:44.542Z,14056
2017-09-12T11:38:07.129Z,17504
2017-09-12T11:39:29.372Z,16480
2017-09-12T11:40:51.550Z,14624
2017-09-12T11:42:14.049Z,14156
2017-09-12T11:43:36.460Z,12312
2017-09-12T11:44:58.923Z,10988
2017-09-12T11:46:21.473Z,9284
2017-09-12T11:47:43.624Z,9624
2017-09-12T11:49:06.479Z,11200
2017-09-12T11:50:28.615Z,7632
2017-09-12T11:51:51.135Z,4164
2017-09-12T11:53:12.642Z,3264
2017-09-12T11:54:35.106Z,4028
2017-09-12T11:55:56.934Z,4224
2017-09-12T11:57:19.123Z,4608
2017-09-12T11:58:41.264Z,5384
2017-09-12T12:00:03.449Z,6292
2017-09-12T12:01:25.288Z,7084
2017-09-12T12:02:47.443Z,7896
2017-09-12T12:04:09.282Z,8692
2017-09-12T12:05:32.068Z,9004
2017-09-12T12:06:54.543Z,8888
2017-09-12T12:08:17.036Z,8716
2017-09-12T12:09:39.509Z,9096
2017-09-12T12:11:01.909Z,9820
2017-09-12T12:12:24.046Z,10540
2017-09-12T12:13:46.515Z,11244
2017-09-12T12:15:08.645Z,11956
2017-09-12T12:16:30.905Z,12312
2017-09-12T12:17:53.490Z,12236
2017-09-12T12:19:15.312Z,13368
2017-09-12T12:20:37.135Z,14980
2017-09-12T12:21:59.633Z,15800
2017-09-12T12:23:21.476Z,15596
2017-09-12T12:24:43.627Z,14560
2017-09-12T12:26:05.787Z,13012
2017-09-12T12:27:27.972Z,11284
2017-09-12T12:28:49.794Z,9788
2017-09-12T12:30:11.948Z,8684
2017-09-12T12:31:34.194Z,7904
2017-09-12T12:32:56.784Z,7304
2017-09-12T12:34:19.234Z,6868
2017-09-12T12:35:41.585Z,6560
2017-09-12T12:37:03.453Z,6072
2017-09-12T12:38:25.514Z,6808
2017-09-12T12:39:47.676Z,7284
2017-09-12T12:41:09.828Z,6712
2017-09-12T12:42:32.312Z,8416
2017-09-12T12:43:55.249Z,10660
2017-09-12T12:45:17.399Z,14008
2017-09-12T12:46:39.575Z,12860
2017-09-12T12:48:01.741Z,12636
2017-09-12T12:49:24.197Z,13464
2017-09-12T12:50:46.895Z,12520
2017-09-12T12:52:09.095Z,11612
2017-09-12T12:53:31.589Z,11448
2017-09-12T12:54:54.377Z,11632
2017-09-12T12:56:16.581Z,11500
2017-09-12T12:57:38.861Z,10712
2017-09-12T12:59:00.727Z,9424
2017-09-12T13:00:23.165Z,8316
2017-09-12T13:01:45.766Z,7544
2017-09-12T13:03:08.233Z,7424
2017-09-12T13:04:30.424Z,7924
2017-09-12T13:05:53.226Z,8416
2017-09-12T13:07:15.513Z,9620
2017-09-12T13:08:37.653Z,11868
2017-09-12T13:09:59.814Z,13972
2017-09-12T13:11:22.599Z,16768
2017-09-12T13:12:44.457Z,19296
2017-09-12T13:14:06.613Z,20672
2017-09-12T13:15:28.465Z,20640
2017-09-12T13:16:50.875Z,19392
2017-09-12T13:18:12.739Z,17344
2017-09-12T13:19:34.609Z,14832
2017-09-12T13:20:56.513Z,12508
2017-09-12T13:22:18.628Z,10540
2017-09-12T13:23:41.160Z,8948
2017-09-12T13:25:03.437Z,7688
2017-09-12T13:26:25.266Z,6752
2017-09-12T13:27:47.333Z,6088
2017-09-12T13:29:09.812Z,5612
2017-09-12T13:30:31.048Z,5336
2017-09-12T13:31:53.215Z,5068
2017-09-12T13:33:15.393Z,4832
2017-09-12T13:34:37.288Z,4716
2017-09-12T13:35:59.583Z,4680
2017-09-12T13:37:22.055Z,4636
2017-09-12T13:38:44.594Z,4584
2017-09-12T13:40:07.064Z,4544
2017-09-12T13:41:28.914Z,4540
2017-09-12T13:42:50.795Z,4444
2017-09-12T13:44:13.587Z,4448
2017-09-12T13:45:36.063Z,4428
2017-09-12T13:46:58.227Z,4516
2017-09-12T13:48:20.076Z,4424
2017-09-12T13:49:42.484Z,4456
2017-09-12T13:51:05.087Z,4508
2017-09-12T13:52:26.607Z,4500
2017-09-12T13:53:48.759Z,4468
2017-09-12T13:55:11.312Z,4384
2017-09-12T13:56:33.469Z,4348
2017-09-12T13:57:55.772Z,4336
2017-09-12T13:59:18.303Z,4332
2017-09-12T14:00:40.565Z,4324
2017-09-12T14:02:03.037Z,4320
2017-09-12T14:03:25.177Z,4332
2017-09-12T14:04:46.999Z,4336
2017-09-12T14:06:09.160Z,4340
2017-09-12T14:07:31.304Z,4360
2017-09-12T14:08:53.769Z,4368
2017-09-12T14:10:16.113Z,4372
2017-09-12T14:11:38.918Z,4380
2017-09-12T14:13:01.223Z,4436
2017-09-12T14:14:23.400Z,4424
2017-09-12T14:15:45.621Z,4408
2017-09-12T14:17:08.131Z,4252
2017-09-12T14:18:30.602Z,4260
2017-09-12T14:19:52.464Z,5048
2017-09-12T14:21:14.933Z,4380
2017-09-12T14:22:36.800Z,4532
2017-09-12T14:23:58.643Z,4524
2017-09-12T14:25:20.232Z,4524
2017-09-12T14:26:42.785Z,4508
2017-09-12T14:28:05.234Z,3992
2017-09-12T14:29:27.509Z,4464
2017-09-12T14:30:49.032Z,4548
2017-09-12T14:32:11.514Z,4528
2017-09-12T14:33:33.963Z,4532
2017-09-12T14:34:56.493Z,4524
2017-09-12T14:36:18.643Z,4524
2017-09-12T14:37:40.852Z,4628
2017-09-12T14:39:03.622Z,4528
2017-09-12T14:40:26.119Z,4540
2017-09-12T14:41:48.724Z,4696
2017-09-12T14:43:10.890Z,4676
2017-09-12T14:44:33.624Z,4660
2017-09-12T14:45:56.092Z,4696
2017-09-12T14:47:18.568Z,5044
2017-09-12T14:48:40.434Z,4776
2017-09-12T14:50:03.166Z,4828
2017-09-12T14:51:25.328Z,5116
2017-09-12T14:52:47.589Z,6848
2017-09-12T14:54:09.433Z,6236
2017-09-12T14:55:32.263Z,5768
2017-09-12T14:56:54.529Z,7948
2017-09-12T14:58:16.401Z,6844
2017-09-12T14:59:38.217Z,5744
2017-09-12T15:01:00.391Z,5864
2017-09-12T15:02:22.554Z,4284
2017-09-12T15:03:45.051Z,2344
2017-09-12T15:05:07.184Z,1860
2017-09-12T15:06:29.362Z,2172
2017-09-12T15:07:51.852Z,2328
2017-09-12T15:09:14.021Z,2212
2017-09-12T15:10:36.214Z,2196
2017-09-12T15:11:58.728Z,2548
2017-09-12T15:13:21.224Z,3604
2017-09-12T15:14:43.824Z,5732
2017-09-12T15:16:06.338Z,9404
2017-09-12T15:17:29.079Z,12604
2017-09-12T15:18:51.235Z,13648
2017-09-12T15:20:13.403Z,11660
2017-09-12T15:21:35.872Z,9684
2017-09-12T15:22:58.376Z,10572
2017-09-12T15:24:20.539Z,9036
2017-09-12T15:25:42.702Z,7776
2017-09-12T15:27:04.872Z,7020
2017-09-12T15:28:27.294Z,6488
2017-09-12T15:29:49.780Z,5244
2017-09-12T15:31:12.291Z,4932
2017-09-12T15:32:34.769Z,5620
2017-09-12T15:33:57.390Z,5864
2017-09-12T15:35:19.567Z,5504
2017-09-12T15:36:41.756Z,4948
2017-09-12T15:38:04.210Z,4444
2017-09-12T15:39:26.684Z,4188
2017-09-12T15:40:48.851Z,4008
2017-09-12T15:42:11.010Z,3868
2017-09-12T15:43:33.160Z,3732
2017-09-12T15:44:55.574Z,3552
2017-09-12T15:46:17.775Z,3416
2017-09-12T15:47:40.283Z,3300
2017-09-12T15:49:02.867Z,3168
2017-09-12T15:50:25.272Z,3080
2017-09-12T15:51:47.135Z,3164
2017-09-12T15:53:09.312Z,3196
2017-09-12T15:54:31.304Z,3776
2017-09-12T15:55:53.702Z,4448
2017-09-12T15:57:15.851Z,5236
2017-09-12T15:58:38.350Z,6368
2017-09-12T16:00:00.584Z,6804
2017-09-12T16:01:23.311Z,6460
2017-09-12T16:02:45.911Z,5796
2017-09-12T16:04:08.086Z,5276
2017-09-12T16:05:30.794Z,4644
2017-09-12T16:06:53.512Z,4308
2017-09-12T16:08:15.662Z,4388
2017-09-12T16:09:38.213Z,4224
2017-09-12T16:11:00.394Z,3984
2017-09-12T16:12:23.196Z,4024
2017-09-12T16:13:45.704Z,4156
2017-09-12T16:15:07.553Z,4116
2017-09-12T16:16:29.712Z,3888
2017-09-12T16:17:51.570Z,3684
2017-09-12T16:19:14.060Z,3552
2017-09-12T16:20:36.249Z,3480
2017-09-12T16:21:58.401Z,3524
2017-09-12T16:23:21.391Z,3580
2017-09-12T16:24:43.892Z,3448
2017-09-12T16:26:06.117Z,3336
2017-09-12T16:27:28.281Z,3256
2017-09-12T16:28:51.173Z,3204
2017-09-12T16:30:13.150Z,3152
2017-09-12T16:31:35.394Z,3108
2017-09-12T16:32:57.565Z,3052
2017-09-12T16:34:20.022Z,3000
2017-09-12T16:35:42.180Z,2912
2017-09-12T16:37:03.694Z,2904
2017-09-12T16:38:25.544Z,2872
2017-09-12T16:39:47.557Z,2812
2017-09-12T16:41:10.020Z,2784
2017-09-12T16:42:32.336Z,2736
2017-09-12T16:43:54.164Z,2692
2017-09-12T16:45:16.529Z,2644
2017-09-12T16:46:38.686Z,2572
2017-09-12T16:48:01.173Z,2392
2017-09-12T16:49:22.982Z,2308
2017-09-12T16:50:45.393Z,2232
2017-09-12T16:52:07.885Z,2160
2017-09-12T16:53:30.027Z,2104
2017-09-12T16:54:52.340Z,2068
2017-09-12T16:56:14.735Z,2036
2017-09-12T16:57:37.095Z,1912
2017-09-12T16:58:59.351Z,1864
2017-09-12T17:00:21.518Z,1828
2017-09-12T17:01:43.610Z,1788
2017-09-12T17:03:06.107Z,1780
2017-09-12T17:04:28.265Z,1772
2017-09-12T17:05:50.734Z,1756
2017-09-12T17:07:13.201Z,1736
2017-09-12T17:08:35.354Z,1680
2017-09-12T17:09:57.834Z,1624
2017-09-12T17:11:20.324Z,1556
2017-09-12T17:12:42.882Z,1468
2017-09-12T17:14:05.364Z,1352
2017-09-12T17:15:27.213Z,1252
2017-09-12T17:16:49.381Z,1188
2017-09-12T17:18:12.226Z,1124
2017-09-12T17:19:34.093Z,1060
2017-09-12T17:20:56.236Z,980
2017-09-12T17:22:18.726Z,916
2017-09-12T17:23:41.169Z,864
2017-09-12T17:25:03.706Z,816
2017-09-12T17:26:25.567Z,772
2017-09-12T17:27:47.736Z,716
2017-09-12T17:29:10.503Z,672
2017-09-12T17:30:32.379Z,628
2017-09-12T17:31:54.834Z,592
2017-09-12T17:33:17.335Z,556
2017-09-12T17:34:40.091Z,536
2017-09-12T17:36:01.935Z,508
2017-09-12T17:37:24.116Z,468
2017-09-12T17:38:46.324Z,416
2017-09-12T17:40:08.749Z,368
2017-09-12T17:41:30.612Z,336
2017-09-12T17:42:52.809Z,304
2017-09-12T17:44:15.043Z,280
2017-09-12T17:45:37.564Z,252
2017-09-12T17:47:00.097Z,228
2017-09-12T17:48:24.058Z,200
2017-09-12T17:49:46.922Z,172
2017-09-12T17:51:09.697Z,160
2017-09-12T17:52:32.311Z,140
2017-09-12T17:53:54.832Z,120
2017-09-12T17:55:16.990Z,104
2017-09-12T17:56:39.798Z,88
2017-09-12T17:58:02.306Z,72
2017-09-12T17:59:24.812Z,52
2017-09-12T18:00:47.366Z,40
2017-09-12T18:02:09.533Z,32
2017-09-12T18:03:32.046Z,24
2017-09-12T18:04:54.552Z,24
2017-09-12T18:06:17.094Z,20
2017-09-12T18:07:39.863Z,12
2017-09-12T18:09:02.374Z,8
2017-09-12T18:10:24.275Z,8
2017-09-12T18:11:46.564Z,8
2017-09-12T18:13:09.148Z,8
2017-09-12T18:14:31.843Z,4
2017-09-12T18:15:54.416Z,0
2017-09-12T18:17:17.149Z,4
2017-09-12T18:18:39.975Z,4
2017-09-12T18:20:02.237Z,0
2017-09-12T18:21:24.505Z,0
2017-09-12T18:22:46.725Z,0
2017-09-12T18:24:09.179Z,0
2017-09-12T18:25:31.669Z,0
2017-09-12T18:26:53.674Z,0
2017-09-12T18:28:15.575Z,0
2017-09-12T18:29:38.348Z,0
2017-09-12T18:31:00.549Z,0
2017-09-12T18:32:23.068Z,0
2017-09-12T18:33:45.244Z,0
2017-09-12T18:35:07.776Z,0
2017-09-12T18:36:30.283Z,0
2017-09-12T18:37:52.791Z,0
2017-09-12T18:39:15.037Z,0
2017-09-12T18:40:37.814Z,0